sensor_id;sensor_type;location;lat;lon;timestamp;temperature;humidity
78345;DHT22;67620;51.134;6.548;2023-08-08T00:00:48;15.10;72.80
78345;DHT22;67620;51.134;6.548;2023-08-08T00:03:14;15.10;72.80
78345;DHT22;67620;51.134;6.548;2023-08-08T00:05:39;15.00;72.70
78345;DHT22;67620;51.134;6.548;2023-08-08T00:08:05;15.00;72.70
78345;DHT22;67620;51.134;6.548;2023-08-08T00:10:30;15.00;72.60
78345;DHT22;67620;51.134;6.548;2023-08-08T00:12:56;15.00;72.60
78345;DHT22;67620;51.134;6.548;2023-08-08T00:15:21;15.00;72.40
78345;DHT22;67620;51.134;6.548;2023-08-08T00:17:47;14.90;72.70
78345;DHT22;67620;51.134;6.548;2023-08-08T00:20:12;14.90;72.50
78345;DHT22;67620;51.134;6.548;2023-08-08T00:22:38;14.90;72.40
78345;DHT22;67620;51.134;6.548;2023-08-08T00:25:03;14.90;72.60
78345;DHT22;67620;51.134;6.548;2023-08-08T00:27:29;14.90;72.50
78345;DHT22;67620;51.134;6.548;2023-08-08T00:29:54;14.90;72.60
78345;DHT22;67620;51.134;6.548;2023-08-08T00:32:20;14.90;72.60
78345;DHT22;67620;51.134;6.548;2023-08-08T00:34:46;14.90;72.20
78345;DHT22;67620;51.134;6.548;2023-08-08T00:37:11;14.90;72.40
78345;DHT22;67620;51.134;6.548;2023-08-08T00:39:37;14.90;72.60
78345;DHT22;67620;51.134;6.548;2023-08-08T00:42:02;14.90;72.60
78345;DHT22;67620;51.134;6.548;2023-08-08T00:44:28;14.80;72.70
78345;DHT22;67620;51.134;6.548;2023-08-08T00:46:54;14.80;72.60
78345;DHT22;67620;51.134;6.548;2023-08-08T00:49:19;14.80;72.80
78345;DHT22;67620;51.134;6.548;2023-08-08T00:51:45;14.80;73.00
78345;DHT22;67620;51.134;6.548;2023-08-08T00:54:11;14.70;72.60
78345;DHT22;67620;51.134;6.548;2023-08-08T00:56:38;14.80;73.00
78345;DHT22;67620;51.134;6.548;2023-08-08T00:59:03;14.80;72.90
78345;DHT22;67620;51.134;6.548;2023-08-08T01:01:29;14.70;73.00
78345;DHT22;67620;51.134;6.548;2023-08-08T01:03:54;14.70;73.10
78345;DHT22;67620;51.134;6.548;2023-08-08T01:06:31;14.70;73.00
78345;DHT22;67620;51.134;6.548;2023-08-08T01:09:03;14.70;73.20
78345;DHT22;67620;51.134;6.548;2023-08-08T01:11:33;14.70;73.30
78345;DHT22;67620;51.134;6.548;2023-08-08T01:14:00;14.70;73.20
78345;DHT22;67620;51.134;6.548;2023-08-08T01:16:26;14.70;73.40
78345;DHT22;67620;51.134;6.548;2023-08-08T01:18:53;14.60;73.50
78345;DHT22;67620;51.134;6.548;2023-08-08T01:21:18;14.60;73.50
78345;DHT22;67620;51.134;6.548;2023-08-08T01:23:51;14.60;74.00
78345;DHT22;67620;51.134;6.548;2023-08-08T01:26:18;14.60;73.90
78345;DHT22;67620;51.134;6.548;2023-08-08T01:28:44;14.60;73.60
78345;DHT22;67620;51.134;6.548;2023-08-08T01:31:09;14.60;73.80
78345;DHT22;67620;51.134;6.548;2023-08-08T01:33:35;14.60;73.90
78345;DHT22;67620;51.134;6.548;2023-08-08T01:36:02;14.60;73.70
78345;DHT22;67620;51.134;6.548;2023-08-08T01:38:40;14.60;73.90
78345;DHT22;67620;51.134;6.548;2023-08-08T01:41:07;14.60;73.80
78345;DHT22;67620;51.134;6.548;2023-08-08T01:43:34;14.60;74.00
78345;DHT22;67620;51.134;6.548;2023-08-08T01:46:00;14.60;74.00
78345;DHT22;67620;51.134;6.548;2023-08-08T01:48:28;14.50;74.00
78345;DHT22;67620;51.134;6.548;2023-08-08T01:50:53;14.50;74.10
78345;DHT22;67620;51.134;6.548;2023-08-08T01:53:19;14.50;74.20
78345;DHT22;67620;51.134;6.548;2023-08-08T01:55:44;14.50;74.20
78345;DHT22;67620;51.134;6.548;2023-08-08T01:58:10;14.50;74.20
78345;DHT22;67620;51.134;6.548;2023-08-08T02:00:35;14.50;74.50
78345;DHT22;67620;51.134;6.548;2023-08-08T02:03:02;14.50;74.40
78345;DHT22;67620;51.134;6.548;2023-08-08T02:05:27;14.50;74.60
78345;DHT22;67620;51.134;6.548;2023-08-08T02:07:53;14.50;74.30
78345;DHT22;67620;51.134;6.548;2023-08-08T02:10:18;14.50;74.70
78345;DHT22;67620;51.134;6.548;2023-08-08T02:12:44;14.50;74.60
78345;DHT22;67620;51.134;6.548;2023-08-08T02:15:09;14.50;74.80
78345;DHT22;67620;51.134;6.548;2023-08-08T02:17:37;14.50;74.90
78345;DHT22;67620;51.134;6.548;2023-08-08T02:20:03;14.50;74.80
78345;DHT22;67620;51.134;6.548;2023-08-08T02:22:28;14.50;74.90
78345;DHT22;67620;51.134;6.548;2023-08-08T02:24:54;14.40;75.00
78345;DHT22;67620;51.134;6.548;2023-08-08T02:27:19;14.40;75.00
78345;DHT22;67620;51.134;6.548;2023-08-08T02:29:45;14.40;75.00
78345;DHT22;67620;51.134;6.548;2023-08-08T02:32:10;14.40;74.90
78345;DHT22;67620;51.134;6.548;2023-08-08T02:34:36;14.40;75.20
78345;DHT22;67620;51.134;6.548;2023-08-08T02:37:01;14.40;75.00
78345;DHT22;67620;51.134;6.548;2023-08-08T02:39:27;14.40;75.10
78345;DHT22;67620;51.134;6.548;2023-08-08T02:41:52;14.40;75.10
78345;DHT22;67620;51.134;6.548;2023-08-08T02:44:18;14.40;75.30
78345;DHT22;67620;51.134;6.548;2023-08-08T02:46:44;14.40;75.70
78345;DHT22;67620;51.134;6.548;2023-08-08T02:49:10;14.30;75.30
78345;DHT22;67620;51.134;6.548;2023-08-08T02:51:35;14.30;75.60
78345;DHT22;67620;51.134;6.548;2023-08-08T02:54:01;14.30;75.50
78345;DHT22;67620;51.134;6.548;2023-08-08T02:56:26;14.30;75.60
78345;DHT22;67620;51.134;6.548;2023-08-08T02:58:52;14.30;75.80
78345;DHT22;67620;51.134;6.548;2023-08-08T03:01:17;14.30;75.90
78345;DHT22;67620;51.134;6.548;2023-08-08T03:03:43;14.30;75.90
78345;DHT22;67620;51.134;6.548;2023-08-08T03:06:09;14.30;76.00
78345;DHT22;67620;51.134;6.548;2023-08-08T03:08:35;14.30;76.10
78345;DHT22;67620;51.134;6.548;2023-08-08T03:11:00;14.30;76.00
78345;DHT22;67620;51.134;6.548;2023-08-08T03:13:26;14.30;75.80
78345;DHT22;67620;51.134;6.548;2023-08-08T03:15:51;14.20;76.00
78345;DHT22;67620;51.134;6.548;2023-08-08T03:18:17;14.20;76.30
78345;DHT22;67620;51.134;6.548;2023-08-08T03:20:42;14.30;76.40
78345;DHT22;67620;51.134;6.548;2023-08-08T03:23:08;14.20;76.60
78345;DHT22;67620;51.134;6.548;2023-08-08T03:25:33;14.20;76.80
78345;DHT22;67620;51.134;6.548;2023-08-08T03:27:59;14.20;76.50
78345;DHT22;67620;51.134;6.548;2023-08-08T03:30:24;14.20;76.90
78345;DHT22;67620;51.134;6.548;2023-08-08T03:32:50;14.20;76.60
78345;DHT22;67620;51.134;6.548;2023-08-08T03:35:15;14.20;77.10
78345;DHT22;67620;51.134;6.548;2023-08-08T03:37:41;14.20;77.20
78345;DHT22;67620;51.134;6.548;2023-08-08T03:40:07;14.20;77.10
78345;DHT22;67620;51.134;6.548;2023-08-08T03:42:33;14.20;77.40
78345;DHT22;67620;51.134;6.548;2023-08-08T03:44:59;14.20;77.40
78345;DHT22;67620;51.134;6.548;2023-08-08T03:47:25;14.10;78.00
78345;DHT22;67620;51.134;6.548;2023-08-08T03:49:51;14.10;77.70
78345;DHT22;67620;51.134;6.548;2023-08-08T03:52:20;14.20;77.80
78345;DHT22;67620;51.134;6.548;2023-08-08T03:54:46;14.20;78.10
78345;DHT22;67620;51.134;6.548;2023-08-08T03:57:11;14.20;78.20
78345;DHT22;67620;51.134;6.548;2023-08-08T03:59:37;14.20;78.20
78345;DHT22;67620;51.134;6.548;2023-08-08T04:02:03;14.20;78.40
78345;DHT22;67620;51.134;6.548;2023-08-08T04:04:29;14.20;78.60
78345;DHT22;67620;51.134;6.548;2023-08-08T04:06:54;14.20;79.00
78345;DHT22;67620;51.134;6.548;2023-08-08T04:09:20;14.20;78.90
78345;DHT22;67620;51.134;6.548;2023-08-08T04:11:46;14.20;78.90
78345;DHT22;67620;51.134;6.548;2023-08-08T04:14:11;14.20;79.10
78345;DHT22;67620;51.134;6.548;2023-08-08T04:16:38;14.20;79.10
78345;DHT22;67620;51.134;6.548;2023-08-08T04:19:03;14.20;79.30
78345;DHT22;67620;51.134;6.548;2023-08-08T04:21:29;14.20;79.60
78345;DHT22;67620;51.134;6.548;2023-08-08T04:23:57;14.20;79.50
78345;DHT22;67620;51.134;6.548;2023-08-08T04:26:23;14.20;79.60
78345;DHT22;67620;51.134;6.548;2023-08-08T04:28:48;14.20;79.60
78345;DHT22;67620;51.134;6.548;2023-08-08T04:31:14;14.20;79.60
78345;DHT22;67620;51.134;6.548;2023-08-08T04:33:39;14.20;79.90
78345;DHT22;67620;51.134;6.548;2023-08-08T04:36:05;14.30;79.90
78345;DHT22;67620;51.134;6.548;2023-08-08T04:38:30;14.30;80.00
78345;DHT22;67620;51.134;6.548;2023-08-08T04:40:56;14.30;80.20
78345;DHT22;67620;51.134;6.548;2023-08-08T04:43:21;14.30;80.20
78345;DHT22;67620;51.134;6.548;2023-08-08T04:45:47;14.30;80.30
78345;DHT22;67620;51.134;6.548;2023-08-08T04:48:12;14.40;80.30
78345;DHT22;67620;51.134;6.548;2023-08-08T04:50:38;14.40;80.40
78345;DHT22;67620;51.134;6.548;2023-08-08T04:53:04;14.30;80.90
78345;DHT22;67620;51.134;6.548;2023-08-08T04:55:29;14.30;80.90
78345;DHT22;67620;51.134;6.548;2023-08-08T04:57:55;14.40;80.80
78345;DHT22;67620;51.134;6.548;2023-08-08T05:00:20;14.40;80.70
78345;DHT22;67620;51.134;6.548;2023-08-08T05:02:46;14.40;80.90
78345;DHT22;67620;51.134;6.548;2023-08-08T05:05:11;14.40;80.80
78345;DHT22;67620;51.134;6.548;2023-08-08T05:07:37;14.40;80.80
78345;DHT22;67620;51.134;6.548;2023-08-08T05:10:03;14.40;80.90
78345;DHT22;67620;51.134;6.548;2023-08-08T05:12:29;14.40;80.80
78345;DHT22;67620;51.134;6.548;2023-08-08T05:14:55;14.40;80.90
78345;DHT22;67620;51.134;6.548;2023-08-08T05:17:20;14.40;81.20
78345;DHT22;67620;51.134;6.548;2023-08-08T05:19:46;14.40;81.10
78345;DHT22;67620;51.134;6.548;2023-08-08T05:22:11;14.50;81.20
78345;DHT22;67620;51.134;6.548;2023-08-08T05:24:37;14.50;81.20
78345;DHT22;67620;51.134;6.548;2023-08-08T05:27:03;14.50;81.20
78345;DHT22;67620;51.134;6.548;2023-08-08T05:29:29;14.50;81.30
78345;DHT22;67620;51.134;6.548;2023-08-08T05:31:54;14.50;81.10
78345;DHT22;67620;51.134;6.548;2023-08-08T05:34:20;14.50;81.10
78345;DHT22;67620;51.134;6.548;2023-08-08T05:36:45;14.50;81.00
78345;DHT22;67620;51.134;6.548;2023-08-08T05:39:11;14.60;81.10
78345;DHT22;67620;51.134;6.548;2023-08-08T05:41:36;14.60;81.00
78345;DHT22;67620;51.134;6.548;2023-08-08T05:44:02;14.60;81.20
78345;DHT22;67620;51.134;6.548;2023-08-08T05:46:28;14.60;81.10
78345;DHT22;67620;51.134;6.548;2023-08-08T05:48:53;14.60;81.20
78345;DHT22;67620;51.134;6.548;2023-08-08T05:51:18;14.60;80.90
78345;DHT22;67620;51.134;6.548;2023-08-08T05:53:44;14.70;80.80
78345;DHT22;67620;51.134;6.548;2023-08-08T05:56:09;14.70;80.80
78345;DHT22;67620;51.134;6.548;2023-08-08T05:58:35;14.70;80.20
78345;DHT22;67620;51.134;6.548;2023-08-08T06:01:02;14.70;80.60
78345;DHT22;67620;51.134;6.548;2023-08-08T06:03:31;14.70;80.60
78345;DHT22;67620;51.134;6.548;2023-08-08T06:05:57;14.70;80.30
78345;DHT22;67620;51.134;6.548;2023-08-08T06:08:22;14.70;80.00
78345;DHT22;67620;51.134;6.548;2023-08-08T06:10:48;14.70;80.30
78345;DHT22;67620;51.134;6.548;2023-08-08T06:13:13;14.80;79.90
78345;DHT22;67620;51.134;6.548;2023-08-08T06:15:39;14.80;79.70
78345;DHT22;67620;51.134;6.548;2023-08-08T06:18:05;14.80;79.90
78345;DHT22;67620;51.134;6.548;2023-08-08T06:20:31;14.80;79.70
78345;DHT22;67620;51.134;6.548;2023-08-08T06:22:56;14.80;79.90
78345;DHT22;67620;51.134;6.548;2023-08-08T06:25:22;14.80;79.60
78345;DHT22;67620;51.134;6.548;2023-08-08T06:27:47;14.90;79.60
78345;DHT22;67620;51.134;6.548;2023-08-08T06:30:13;14.90;79.90
78345;DHT22;67620;51.134;6.548;2023-08-08T06:32:39;14.90;80.20
78345;DHT22;67620;51.134;6.548;2023-08-08T06:35:04;14.90;79.50
78345;DHT22;67620;51.134;6.548;2023-08-08T06:37:31;15.00;79.50
78345;DHT22;67620;51.134;6.548;2023-08-08T06:39:56;15.00;79.40
78345;DHT22;67620;51.134;6.548;2023-08-08T06:42:22;15.00;79.70
78345;DHT22;67620;51.134;6.548;2023-08-08T06:44:47;15.00;79.50
78345;DHT22;67620;51.134;6.548;2023-08-08T06:47:13;15.10;79.20
78345;DHT22;67620;51.134;6.548;2023-08-08T06:49:38;15.10;79.40
78345;DHT22;67620;51.134;6.548;2023-08-08T06:52:04;15.10;79.10
78345;DHT22;67620;51.134;6.548;2023-08-08T06:54:31;15.10;79.10
78345;DHT22;67620;51.134;6.548;2023-08-08T06:56:56;15.20;79.10
78345;DHT22;67620;51.134;6.548;2023-08-08T06:59:23;15.20;78.70
78345;DHT22;67620;51.134;6.548;2023-08-08T07:01:48;15.20;79.40
78345;DHT22;67620;51.134;6.548;2023-08-08T07:04:14;15.20;79.30
78345;DHT22;67620;51.134;6.548;2023-08-08T07:06:40;15.20;78.70
78345;DHT22;67620;51.134;6.548;2023-08-08T07:09:05;15.30;78.70
78345;DHT22;67620;51.134;6.548;2023-08-08T07:11:31;15.30;78.80
78345;DHT22;67620;51.134;6.548;2023-08-08T07:13:57;15.30;78.50
78345;DHT22;67620;51.134;6.548;2023-08-08T07:16:22;15.30;78.60
78345;DHT22;67620;51.134;6.548;2023-08-08T07:18:48;15.40;78.60
78345;DHT22;67620;51.134;6.548;2023-08-08T07:21:13;15.40;78.90
78345;DHT22;67620;51.134;6.548;2023-08-08T07:23:40;15.50;79.40
78345;DHT22;67620;51.134;6.548;2023-08-08T07:26:05;15.50;78.40
78345;DHT22;67620;51.134;6.548;2023-08-08T07:28:31;15.50;78.30
78345;DHT22;67620;51.134;6.548;2023-08-08T07:30:57;15.60;78.40
78345;DHT22;67620;51.134;6.548;2023-08-08T07:33:23;15.70;78.50
78345;DHT22;67620;51.134;6.548;2023-08-08T07:35:49;15.70;78.60
78345;DHT22;67620;51.134;6.548;2023-08-08T07:38:14;15.80;78.20
78345;DHT22;67620;51.134;6.548;2023-08-08T07:40:41;15.80;78.60
78345;DHT22;67620;51.134;6.548;2023-08-08T07:43:06;15.90;78.90
78345;DHT22;67620;51.134;6.548;2023-08-08T07:45:32;15.90;78.30
78345;DHT22;67620;51.134;6.548;2023-08-08T07:47:57;16.00;77.70
78345;DHT22;67620;51.134;6.548;2023-08-08T07:50:23;16.00;77.80
78345;DHT22;67620;51.134;6.548;2023-08-08T07:52:48;16.00;78.60
78345;DHT22;67620;51.134;6.548;2023-08-08T07:55:14;16.00;77.50
78345;DHT22;67620;51.134;6.548;2023-08-08T07:57:39;15.90;77.60
78345;DHT22;67620;51.134;6.548;2023-08-08T08:00:05;15.90;77.20
78345;DHT22;67620;51.134;6.548;2023-08-08T08:02:42;15.90;76.80
78345;DHT22;67620;51.134;6.548;2023-08-08T08:05:08;15.90;77.50
78345;DHT22;67620;51.134;6.548;2023-08-08T08:07:37;15.90;77.70
78345;DHT22;67620;51.134;6.548;2023-08-08T08:10:03;15.90;77.70
78345;DHT22;67620;51.134;6.548;2023-08-08T08:12:30;15.90;77.40
78345;DHT22;67620;51.134;6.548;2023-08-08T08:14:56;16.00;77.40
78345;DHT22;67620;51.134;6.548;2023-08-08T08:17:21;15.90;77.10
78345;DHT22;67620;51.134;6.548;2023-08-08T08:19:47;15.90;77.10
78345;DHT22;67620;51.134;6.548;2023-08-08T08:22:12;15.90;77.40
78345;DHT22;67620;51.134;6.548;2023-08-08T08:24:37;15.80;77.00
78345;DHT22;67620;51.134;6.548;2023-08-08T08:27:03;15.80;77.70
78345;DHT22;67620;51.134;6.548;2023-08-08T08:29:28;15.90;78.10
78345;DHT22;67620;51.134;6.548;2023-08-08T08:31:54;15.90;77.70
78345;DHT22;67620;51.134;6.548;2023-08-08T08:34:19;15.90;77.90
78345;DHT22;67620;51.134;6.548;2023-08-08T08:36:45;15.90;76.90
78345;DHT22;67620;51.134;6.548;2023-08-08T08:39:10;15.90;77.60
78345;DHT22;67620;51.134;6.548;2023-08-08T08:41:36;15.90;78.10
78345;DHT22;67620;51.134;6.548;2023-08-08T08:44:04;15.80;77.90
78345;DHT22;67620;51.134;6.548;2023-08-08T08:46:30;15.80;78.70
78345;DHT22;67620;51.134;6.548;2023-08-08T08:48:55;15.80;79.60
78345;DHT22;67620;51.134;6.548;2023-08-08T08:51:22;15.80;80.40
78345;DHT22;67620;51.134;6.548;2023-08-08T08:53:48;15.80;81.20
78345;DHT22;67620;51.134;6.548;2023-08-08T08:56:16;15.70;81.40
78345;DHT22;67620;51.134;6.548;2023-08-08T08:58:42;15.70;81.80
78345;DHT22;67620;51.134;6.548;2023-08-08T09:01:08;15.70;81.10
78345;DHT22;67620;51.134;6.548;2023-08-08T09:03:34;15.80;81.10
78345;DHT22;67620;51.134;6.548;2023-08-08T09:06:00;15.80;81.40
78345;DHT22;67620;51.134;6.548;2023-08-08T09:08:25;15.80;81.60
78345;DHT22;67620;51.134;6.548;2023-08-08T09:10:51;15.80;81.70
78345;DHT22;67620;51.134;6.548;2023-08-08T09:13:17;15.80;81.60
78345;DHT22;67620;51.134;6.548;2023-08-08T09:15:42;15.80;81.60
78345;DHT22;67620;51.134;6.548;2023-08-08T09:18:08;15.80;81.40
78345;DHT22;67620;51.134;6.548;2023-08-08T09:20:33;15.80;81.20
78345;DHT22;67620;51.134;6.548;2023-08-08T09:22:59;15.80;81.10
78345;DHT22;67620;51.134;6.548;2023-08-08T09:25:25;15.90;80.80
78345;DHT22;67620;51.134;6.548;2023-08-08T09:27:51;15.90;81.10
78345;DHT22;67620;51.134;6.548;2023-08-08T09:30:18;16.00;80.60
78345;DHT22;67620;51.134;6.548;2023-08-08T09:32:44;16.10;81.30
78345;DHT22;67620;51.134;6.548;2023-08-08T09:35:10;16.30;80.40
78345;DHT22;67620;51.134;6.548;2023-08-08T09:37:36;16.30;80.70
78345;DHT22;67620;51.134;6.548;2023-08-08T09:40:04;16.40;79.30
78345;DHT22;67620;51.134;6.548;2023-08-08T09:42:33;16.40;79.50
78345;DHT22;67620;51.134;6.548;2023-08-08T09:44:59;16.40;79.60
78345;DHT22;67620;51.134;6.548;2023-08-08T09:47:25;16.40;79.50
78345;DHT22;67620;51.134;6.548;2023-08-08T09:50:00;16.40;79.00
78345;DHT22;67620;51.134;6.548;2023-08-08T09:52:30;16.50;79.10
78345;DHT22;67620;51.134;6.548;2023-08-08T09:54:56;16.50;78.60
78345;DHT22;67620;51.134;6.548;2023-08-08T09:57:22;16.50;76.80
78345;DHT22;67620;51.134;6.548;2023-08-08T09:59:48;16.50;77.10
78345;DHT22;67620;51.134;6.548;2023-08-08T10:02:15;16.50;77.60
78345;DHT22;67620;51.134;6.548;2023-08-08T10:04:41;16.50;78.00
78345;DHT22;67620;51.134;6.548;2023-08-08T10:07:06;16.60;77.70
78345;DHT22;67620;51.134;6.548;2023-08-08T10:09:32;16.50;77.00
78345;DHT22;67620;51.134;6.548;2023-08-08T10:11:59;16.50;76.80
78345;DHT22;67620;51.134;6.548;2023-08-08T10:14:30;16.50;76.60
78345;DHT22;67620;51.134;6.548;2023-08-08T10:16:57;16.50;76.40
78345;DHT22;67620;51.134;6.548;2023-08-08T10:19:23;16.50;76.40
78345;DHT22;67620;51.134;6.548;2023-08-08T10:21:50;16.50;76.20
78345;DHT22;67620;51.134;6.548;2023-08-08T10:24:20;16.50;76.10
78345;DHT22;67620;51.134;6.548;2023-08-08T10:26:59;16.50;76.20
78345;DHT22;67620;51.134;6.548;2023-08-08T10:29:28;16.50;75.80
78345;DHT22;67620;51.134;6.548;2023-08-08T10:31:59;16.50;75.60
78345;DHT22;67620;51.134;6.548;2023-08-08T10:34:43;16.50;75.70
78345;DHT22;67620;51.134;6.548;2023-08-08T10:37:19;16.50;75.80
78345;DHT22;67620;51.134;6.548;2023-08-08T10:39:57;16.60;76.40
78345;DHT22;67620;51.134;6.548;2023-08-08T10:42:25;16.60;74.90
78345;DHT22;67620;51.134;6.548;2023-08-08T10:44:52;16.60;75.20
78345;DHT22;67620;51.134;6.548;2023-08-08T10:47:32;16.60;75.00
78345;DHT22;67620;51.134;6.548;2023-08-08T10:52:25;16.70;74.60
78345;DHT22;67620;51.134;6.548;2023-08-08T10:54:51;16.70;74.50
78345;DHT22;67620;51.134;6.548;2023-08-08T10:57:17;16.80;74.10
78345;DHT22;67620;51.134;6.548;2023-08-08T10:59:44;16.80;74.40
78345;DHT22;67620;51.134;6.548;2023-08-08T11:02:10;16.80;73.50
78345;DHT22;67620;51.134;6.548;2023-08-08T11:04:35;16.80;73.60
78345;DHT22;67620;51.134;6.548;2023-08-08T11:07:01;16.80;73.50
78345;DHT22;67620;51.134;6.548;2023-08-08T11:09:26;16.80;73.00
78345;DHT22;67620;51.134;6.548;2023-08-08T11:11:52;16.80;72.90
78345;DHT22;67620;51.134;6.548;2023-08-08T11:14:19;16.80;73.20
78345;DHT22;67620;51.134;6.548;2023-08-08T11:16:46;16.80;72.70
78345;DHT22;67620;51.134;6.548;2023-08-08T11:19:12;16.80;74.10
78345;DHT22;67620;51.134;6.548;2023-08-08T11:21:41;16.70;74.40
78345;DHT22;67620;51.134;6.548;2023-08-08T11:24:07;16.70;74.50
78345;DHT22;67620;51.134;6.548;2023-08-08T11:26:35;16.70;74.50
78345;DHT22;67620;51.134;6.548;2023-08-08T11:29:01;16.70;74.80
78345;DHT22;67620;51.134;6.548;2023-08-08T11:31:28;16.70;76.00
78345;DHT22;67620;51.134;6.548;2023-08-08T11:33:54;16.60;76.30
78345;DHT22;67620;51.134;6.548;2023-08-08T11:36:21;16.60;77.10
78345;DHT22;67620;51.134;6.548;2023-08-08T11:38:48;16.60;77.90
78345;DHT22;67620;51.134;6.548;2023-08-08T11:41:16;16.60;78.00
78345;DHT22;67620;51.134;6.548;2023-08-08T11:43:44;16.60;78.30
78345;DHT22;67620;51.134;6.548;2023-08-08T11:46:14;16.60;78.80
78345;DHT22;67620;51.134;6.548;2023-08-08T11:48:40;16.50;79.40
78345;DHT22;67620;51.134;6.548;2023-08-08T11:51:07;16.50;80.10
78345;DHT22;67620;51.134;6.548;2023-08-08T11:53:33;16.50;79.60
78345;DHT22;67620;51.134;6.548;2023-08-08T11:56:00;16.50;80.00
78345;DHT22;67620;51.134;6.548;2023-08-08T11:58:25;16.50;80.20
78345;DHT22;67620;51.134;6.548;2023-08-08T12:00:52;16.50;79.40
78345;DHT22;67620;51.134;6.548;2023-08-08T12:03:18;16.40;79.60
78345;DHT22;67620;51.134;6.548;2023-08-08T12:05:46;16.40;79.80
78345;DHT22;67620;51.134;6.548;2023-08-08T12:08:11;16.40;79.70
78345;DHT22;67620;51.134;6.548;2023-08-08T12:10:37;16.40;79.70
78345;DHT22;67620;51.134;6.548;2023-08-08T12:13:02;16.30;79.80
78345;DHT22;67620;51.134;6.548;2023-08-08T12:15:28;16.30;79.90
78345;DHT22;67620;51.134;6.548;2023-08-08T12:17:55;16.30;79.70
78345;DHT22;67620;51.134;6.548;2023-08-08T12:20:22;16.30;80.00
78345;DHT22;67620;51.134;6.548;2023-08-08T12:40:44;16.50;81.30
78345;DHT22;67620;51.134;6.548;2023-08-08T13:00:20;17.00;79.80
78345;DHT22;67620;51.134;6.548;2023-08-08T13:02:46;17.00;79.40
78345;DHT22;67620;51.134;6.548;2023-08-08T13:05:12;17.00;78.30
78345;DHT22;67620;51.134;6.548;2023-08-08T13:07:38;17.00;78.50
78345;DHT22;67620;51.134;6.548;2023-08-08T13:10:03;17.00;79.20
78345;DHT22;67620;51.134;6.548;2023-08-08T13:12:30;17.00;78.10
78345;DHT22;67620;51.134;6.548;2023-08-08T13:14:55;17.00;78.50
78345;DHT22;67620;51.134;6.548;2023-08-08T13:17:21;16.90;77.40
78345;DHT22;67620;51.134;6.548;2023-08-08T13:19:46;16.90;77.20
78345;DHT22;67620;51.134;6.548;2023-08-08T13:22:12;16.90;77.60
78345;DHT22;67620;51.134;6.548;2023-08-08T13:24:38;16.90;78.10
78345;DHT22;67620;51.134;6.548;2023-08-08T13:27:04;16.90;77.20
78345;DHT22;67620;51.134;6.548;2023-08-08T13:29:29;17.00;77.40
78345;DHT22;67620;51.134;6.548;2023-08-08T13:31:55;17.00;76.70
78345;DHT22;67620;51.134;6.548;2023-08-08T13:34:21;17.10;76.10
78345;DHT22;67620;51.134;6.548;2023-08-08T13:36:46;17.20;76.00
78345;DHT22;67620;51.134;6.548;2023-08-08T13:39:12;17.30;73.60
78345;DHT22;67620;51.134;6.548;2023-08-08T13:41:38;17.30;72.70
78345;DHT22;67620;51.134;6.548;2023-08-08T13:44:04;17.30;71.60
78345;DHT22;67620;51.134;6.548;2023-08-08T13:46:30;17.20;71.70
78345;DHT22;67620;51.134;6.548;2023-08-08T13:48:55;17.20;71.90
78345;DHT22;67620;51.134;6.548;2023-08-08T13:51:21;17.10;71.60
78345;DHT22;67620;51.134;6.548;2023-08-08T13:53:46;17.10;71.80
78345;DHT22;67620;51.134;6.548;2023-08-08T13:56:14;17.10;72.00
78345;DHT22;67620;51.134;6.548;2023-08-08T13:58:41;17.10;71.40
78345;DHT22;67620;51.134;6.548;2023-08-08T14:01:07;17.20;71.30
78345;DHT22;67620;51.134;6.548;2023-08-08T14:03:32;17.40;72.10
78345;DHT22;67620;51.134;6.548;2023-08-08T14:05:58;17.50;71.20
78345;DHT22;67620;51.134;6.548;2023-08-08T14:08:23;17.50;70.80
78345;DHT22;67620;51.134;6.548;2023-08-08T14:10:49;17.50;69.70
78345;DHT22;67620;51.134;6.548;2023-08-08T14:13:14;17.40;69.00
78345;DHT22;67620;51.134;6.548;2023-08-08T14:15:40;17.50;69.60
78345;DHT22;67620;51.134;6.548;2023-08-08T14:18:06;17.60;69.70
78345;DHT22;67620;51.134;6.548;2023-08-08T14:20:32;17.70;69.70
78345;DHT22;67620;51.134;6.548;2023-08-08T14:22:57;17.80;69.10
78345;DHT22;67620;51.134;6.548;2023-08-08T14:25:23;17.80;69.30
78345;DHT22;67620;51.134;6.548;2023-08-08T14:27:49;17.90;68.90
78345;DHT22;67620;51.134;6.548;2023-08-08T14:30:14;17.90;69.20
78345;DHT22;67620;51.134;6.548;2023-08-08T14:32:40;17.90;67.10
78345;DHT22;67620;51.134;6.548;2023-08-08T14:35:06;17.90;68.30
78345;DHT22;67620;51.134;6.548;2023-08-08T14:37:35;18.00;67.30
78345;DHT22;67620;51.134;6.548;2023-08-08T14:40:00;18.10;65.20
78345;DHT22;67620;51.134;6.548;2023-08-08T14:42:26;18.10;65.90
78345;DHT22;67620;51.134;6.548;2023-08-08T14:44:51;18.20;66.30
78345;DHT22;67620;51.134;6.548;2023-08-08T14:47:17;18.20;66.30
78345;DHT22;67620;51.134;6.548;2023-08-08T14:49:42;18.30;67.20
78345;DHT22;67620;51.134;6.548;2023-08-08T14:52:08;18.30;66.90
78345;DHT22;67620;51.134;6.548;2023-08-08T14:54:34;18.40;66.40
78345;DHT22;67620;51.134;6.548;2023-08-08T14:57:00;18.30;65.00
78345;DHT22;67620;51.134;6.548;2023-08-08T14:59:27;18.40;66.00
78345;DHT22;67620;51.134;6.548;2023-08-08T15:01:53;18.40;63.90
78345;DHT22;67620;51.134;6.548;2023-08-08T15:04:19;18.30;64.30
78345;DHT22;67620;51.134;6.548;2023-08-08T15:06:44;18.20;64.50
78345;DHT22;67620;51.134;6.548;2023-08-08T15:09:10;18.30;63.80
78345;DHT22;67620;51.134;6.548;2023-08-08T15:11:36;18.30;65.00
78345;DHT22;67620;51.134;6.548;2023-08-08T15:14:02;18.40;63.30
78345;DHT22;67620;51.134;6.548;2023-08-08T15:16:28;18.40;63.80
78345;DHT22;67620;51.134;6.548;2023-08-08T15:18:54;18.30;63.40
78345;DHT22;67620;51.134;6.548;2023-08-08T15:21:20;18.40;64.90
78345;DHT22;67620;51.134;6.548;2023-08-08T15:23:46;18.40;63.90
78345;DHT22;67620;51.134;6.548;2023-08-08T15:26:12;18.50;63.20
78345;DHT22;67620;51.134;6.548;2023-08-08T15:28:38;18.50;62.90
78345;DHT22;67620;51.134;6.548;2023-08-08T15:31:03;18.60;62.80
78345;DHT22;67620;51.134;6.548;2023-08-08T15:33:29;18.60;62.20
78345;DHT22;67620;51.134;6.548;2023-08-08T15:35:55;18.70;62.50
78345;DHT22;67620;51.134;6.548;2023-08-08T15:38:20;18.60;61.30
78345;DHT22;67620;51.134;6.548;2023-08-08T15:40:46;18.70;60.60
78345;DHT22;67620;51.134;6.548;2023-08-08T15:43:11;18.70;61.40
78345;DHT22;67620;51.134;6.548;2023-08-08T15:45:37;18.70;61.40
78345;DHT22;67620;51.134;6.548;2023-08-08T15:48:03;18.70;61.30
78345;DHT22;67620;51.134;6.548;2023-08-08T15:50:29;18.70;61.00
78345;DHT22;67620;51.134;6.548;2023-08-08T15:52:54;18.80;60.70
78345;DHT22;67620;51.134;6.548;2023-08-08T15:55:22;18.80;60.80
78345;DHT22;67620;51.134;6.548;2023-08-08T15:57:48;18.80;60.00
78345;DHT22;67620;51.134;6.548;2023-08-08T16:00:15;18.70;60.60